createdAt,value
2023-04-26T00:02:18.531Z,9.58
2023-04-26T00:04:47.299Z,9.50
2023-04-26T00:07:15.705Z,9.49
2023-04-26T00:09:44.325Z,9.45
2023-04-26T00:12:11.932Z,9.38
2023-04-26T00:14:38.765Z,9.35
2023-04-26T00:17:05.416Z,9.29
2023-04-26T00:19:32.133Z,9.39
2023-04-26T00:21:58.892Z,9.36
2023-04-26T00:24:27.878Z,9.30
2023-04-26T00:26:55.971Z,9.29
2023-04-26T00:29:23.717Z,9.29
2023-04-26T00:31:50.521Z,9.25
2023-04-26T00:34:17.461Z,9.22
2023-04-26T00:36:44.162Z,9.18
2023-04-26T00:39:10.965Z,9.20
2023-04-26T00:41:37.711Z,9.16
2023-04-26T00:44:04.748Z,9.15
2023-04-26T00:46:31.678Z,9.15
2023-04-26T00:48:58.410Z,9.08
2023-04-26T00:51:25.173Z,8.99
2023-04-26T00:53:51.795Z,8.88
2023-04-26T00:56:19.029Z,8.92
2023-04-26T00:58:46.278Z,8.95
2023-04-26T01:01:13.423Z,8.99
2023-04-26T01:03:41.644Z,8.94
2023-04-26T01:06:08.424Z,8.88
2023-04-26T01:08:36.970Z,8.90
2023-04-26T01:11:04.446Z,8.94
2023-04-26T01:13:32.870Z,8.93
2023-04-26T01:15:59.927Z,8.88
2023-04-26T01:18:26.887Z,8.79
2023-04-26T01:20:53.997Z,8.76
2023-04-26T01:23:20.896Z,8.73
2023-04-26T01:25:48.253Z,8.76
2023-04-26T01:28:14.969Z,8.73
2023-04-26T01:30:41.688Z,8.65
2023-04-26T01:33:08.351Z,8.68
2023-04-26T01:35:34.995Z,8.72
2023-04-26T01:38:02.619Z,8.75
2023-04-26T01:40:29.335Z,8.64
2023-04-26T01:42:56.170Z,8.53
2023-04-26T01:45:22.792Z,8.41
2023-04-26T01:48:08.887Z,8.44
2023-04-26T01:50:35.757Z,8.46
2023-04-26T01:53:02.490Z,8.40
2023-04-26T01:55:29.167Z,8.42
2023-04-26T01:57:55.888Z,8.45
2023-04-26T02:00:22.784Z,8.42
2023-04-26T02:02:49.716Z,8.36
2023-04-26T02:05:16.471Z,8.37
2023-04-26T02:07:43.134Z,8.30
2023-04-26T02:10:10.028Z,8.21
2023-04-26T02:12:36.763Z,8.23
2023-04-26T02:15:03.655Z,8.25
2023-04-26T02:17:31.615Z,8.18
2023-04-26T02:19:58.518Z,8.15
2023-04-26T02:22:25.358Z,8.14
2023-04-26T02:24:52.782Z,8.08
2023-04-26T02:27:20.049Z,8.15
2023-04-26T02:29:46.894Z,8.04
2023-04-26T02:32:14.228Z,7.97
2023-04-26T02:34:41.239Z,7.98
2023-04-26T02:37:08.800Z,7.95
2023-04-26T02:39:35.867Z,8.06
2023-04-26T02:42:02.648Z,8.06
2023-04-26T02:44:30.914Z,8.06
2023-04-26T02:47:01.310Z,8.02
2023-04-26T02:49:28.205Z,8.00
2023-04-26T02:51:54.829Z,7.89
2023-04-26T02:54:21.595Z,7.93
2023-04-26T02:56:48.256Z,7.90
2023-04-26T02:59:15.088Z,7.86
2023-04-26T03:01:43.231Z,7.90
2023-04-26T03:04:10.080Z,7.92
2023-04-26T03:06:38.003Z,7.92
2023-04-26T03:09:05.781Z,7.93
2023-04-26T03:11:32.890Z,7.92
2023-04-26T03:13:59.638Z,7.93
2023-04-26T03:16:28.272Z,7.88
2023-04-26T03:18:55.302Z,7.78
2023-04-26T03:21:22.217Z,7.71
2023-04-26T03:23:48.961Z,7.75
2023-04-26T03:26:15.897Z,7.75
2023-04-26T03:28:42.634Z,7.71
2023-04-26T03:31:09.228Z,7.67
2023-04-26T03:33:35.988Z,7.63
2023-04-26T03:36:02.722Z,7.61
2023-04-26T03:38:29.368Z,7.59
2023-04-26T03:40:57.023Z,7.67
2023-04-26T03:43:24.178Z,7.64
2023-04-26T03:45:51.492Z,7.59
2023-04-26T03:48:18.172Z,7.64
2023-04-26T03:50:45.903Z,7.62
2023-04-26T03:53:12.909Z,7.55
2023-04-26T03:55:39.602Z,7.58
2023-04-26T03:58:07.955Z,7.59
2023-04-26T04:00:38.716Z,7.54
2023-04-26T04:03:07.262Z,7.57
2023-04-26T04:05:34.254Z,7.55
2023-04-26T04:08:01.819Z,7.54
2023-04-26T04:10:28.947Z,7.57
2023-04-26T04:12:55.817Z,7.50
2023-04-26T04:15:22.787Z,7.48
2023-04-26T04:17:49.472Z,7.51
2023-04-26T04:20:16.342Z,7.45
2023-04-26T04:22:43.379Z,7.49
2023-04-26T04:25:14.049Z,7.51
2023-04-26T04:27:43.347Z,7.47
2023-04-26T04:30:12.453Z,7.47
2023-04-26T04:32:40.381Z,7.47
2023-04-26T04:35:07.792Z,7.46
2023-04-26T04:37:35.108Z,7.44
2023-04-26T04:40:02.159Z,7.50
2023-04-26T04:42:32.256Z,7.45
2023-04-26T04:44:59.718Z,7.54
2023-04-26T04:47:27.711Z,7.52
2023-04-26T04:49:54.470Z,7.61
2023-04-26T04:52:21.785Z,7.76
2023-04-26T04:54:48.876Z,7.84
2023-04-26T04:57:16.669Z,7.86
2023-04-26T04:59:44.625Z,7.81
2023-04-26T05:02:11.453Z,7.86
2023-04-26T05:04:38.360Z,8.03
2023-04-26T05:07:06.526Z,8.19
2023-04-26T05:09:34.043Z,8.35
2023-04-26T05:12:01.324Z,8.63
2023-04-26T05:14:29.931Z,8.66
2023-04-26T05:16:57.533Z,8.80
2023-04-26T05:19:25.324Z,9.14
2023-04-26T05:21:52.568Z,9.53
2023-04-26T05:24:19.658Z,9.73
2023-04-26T05:26:47.338Z,10.04
2023-04-26T05:29:32.803Z,10.37
2023-04-26T05:32:06.034Z,10.87
2023-04-26T05:34:51.878Z,11.19
2023-04-26T05:37:18.580Z,11.48
2023-04-26T05:39:45.310Z,11.83
2023-04-26T05:42:12.105Z,12.03
2023-04-26T05:44:39.521Z,12.10
2023-04-26T05:47:06.678Z,12.15
2023-04-26T05:49:33.359Z,11.81
2023-04-26T05:52:03.782Z,11.43
2023-04-26T05:54:30.510Z,11.35
2023-04-26T05:56:58.972Z,11.06
2023-04-26T05:59:26.866Z,11.04
2023-04-26T06:01:54.271Z,10.95
2023-04-26T06:04:21.180Z,11.18
2023-04-26T06:07:00.625Z,11.74
2023-04-26T06:09:27.347Z,12.32
2023-04-26T06:11:54.072Z,12.68
2023-04-26T06:14:30.073Z,13.00
2023-04-26T06:17:00.592Z,13.51
2023-04-26T06:19:28.365Z,13.45
2023-04-26T06:21:56.970Z,13.45
2023-04-26T06:24:27.062Z,13.58
2023-04-26T06:26:53.827Z,14.32
2023-04-26T06:29:21.426Z,15.14
2023-04-26T06:31:48.408Z,16.00
2023-04-26T06:34:15.135Z,16.68
2023-04-26T06:36:42.197Z,17.30
2023-04-26T06:39:09.585Z,17.98
2023-04-26T06:41:39.036Z,18.45
2023-04-26T06:44:05.991Z,18.61
2023-04-26T06:46:32.693Z,17.33
2023-04-26T06:48:59.334Z,16.97
2023-04-26T06:51:26.966Z,17.11
2023-04-26T06:53:53.751Z,17.94
2023-04-26T06:56:20.961Z,19.17
2023-04-26T06:59:01.503Z,19.62
2023-04-26T07:01:29.468Z,19.70
2023-04-26T07:03:59.519Z,19.76
2023-04-26T07:06:26.498Z,18.28
2023-04-26T07:08:53.611Z,17.09
2023-04-26T07:11:21.991Z,16.97
2023-04-26T07:13:49.528Z,16.95
2023-04-26T07:16:16.769Z,16.78
2023-04-26T07:18:43.627Z,17.06
2023-04-26T07:21:10.258Z,17.09
2023-04-26T07:23:36.934Z,17.58
2023-04-26T07:26:04.430Z,18.24
2023-04-26T07:28:31.799Z,18.51
2023-04-26T07:31:00.106Z,19.14
2023-04-26T07:33:27.391Z,19.13
2023-04-26T07:35:58.849Z,19.85
2023-04-26T07:38:25.818Z,20.47
2023-04-26T07:40:52.741Z,20.78
2023-04-26T07:43:20.538Z,21.19
2023-04-26T07:45:47.190Z,20.77
2023-04-26T07:48:13.898Z,20.00
2023-04-26T07:50:40.633Z,19.77
2023-04-26T07:53:07.306Z,19.66
2023-04-26T07:55:33.938Z,19.99
2023-04-26T07:58:00.875Z,20.22
2023-04-26T08:00:27.721Z,20.72
2023-04-26T08:02:54.687Z,22.01
2023-04-26T08:05:22.151Z,22.53
2023-04-26T08:07:48.859Z,22.97
2023-04-26T08:10:15.808Z,23.70
2023-04-26T08:12:42.544Z,23.16
2023-04-26T08:15:09.887Z,23.00
2023-04-26T08:17:36.897Z,22.48
2023-04-26T08:20:05.947Z,22.50
2023-04-26T08:22:32.621Z,22.19
2023-04-26T08:24:59.331Z,23.81
2023-04-26T08:27:26.070Z,25.86
2023-04-26T08:29:52.691Z,26.75
2023-04-26T08:32:19.479Z,26.23
2023-04-26T08:34:46.599Z,25.94
2023-04-26T08:37:13.705Z,24.44
2023-04-26T08:39:41.556Z,23.94
2023-04-26T08:42:15.950Z,23.49
2023-04-26T08:44:44.287Z,23.69
2023-04-26T08:47:18.493Z,23.29
2023-04-26T08:49:53.002Z,22.47
2023-04-26T08:52:23.286Z,22.62
2023-04-26T08:54:52.539Z,22.29
2023-04-26T08:57:19.695Z,21.77
2023-04-26T08:59:46.989Z,21.64
2023-04-26T09:02:18.609Z,21.46
2023-04-26T09:04:49.967Z,21.32
2023-04-26T09:07:41.993Z,20.78
2023-04-26T09:10:10.740Z,20.52
2023-04-26T09:12:38.083Z,20.45
2023-04-26T09:15:07.252Z,20.41
2023-04-26T09:17:38.922Z,19.97
2023-04-26T09:20:28.984Z,19.96
2023-04-26T09:23:06.593Z,19.70
2023-04-26T09:25:33.645Z,19.64
2023-04-26T09:28:01.334Z,19.82
2023-04-26T09:30:29.033Z,19.94
2023-04-26T09:33:06.918Z,19.97
2023-04-26T09:35:40.600Z,20.50
2023-04-26T09:38:12.588Z,20.66
2023-04-26T09:40:50.521Z,21.38
2023-04-26T09:43:19.556Z,21.46
2023-04-26T09:45:46.190Z,21.47
2023-04-26T09:48:23.323Z,21.24
2023-04-26T09:50:52.544Z,21.00
2023-04-26T09:53:47.560Z,19.88
2023-04-26T09:56:19.804Z,20.01
2023-04-26T09:58:46.555Z,20.68
2023-04-26T10:01:16.165Z,20.69
2023-04-26T10:03:44.080Z,21.26
2023-04-26T10:06:12.756Z,21.92
2023-04-26T10:08:39.561Z,22.78
2023-04-26T10:11:13.073Z,23.26
2023-04-26T10:16:09.901Z,23.85
2023-04-26T10:18:37.162Z,23.35
2023-04-26T10:21:35.239Z,22.11
2023-04-26T10:24:02.921Z,21.96
2023-04-26T10:26:53.005Z,22.74
2023-04-26T10:29:46.617Z,23.65
2023-04-26T10:32:17.196Z,24.01
2023-04-26T10:34:44.236Z,24.65
2023-04-26T10:37:14.349Z,24.79
2023-04-26T10:39:43.498Z,24.76
2023-04-26T10:42:24.160Z,25.13
2023-04-26T10:44:53.591Z,25.46
2023-04-26T10:47:36.443Z,25.05
2023-04-26T10:50:08.979Z,24.32
2023-04-26T10:52:38.236Z,24.98
2023-04-26T10:55:06.831Z,25.85
2023-04-26T10:57:50.361Z,25.99
2023-04-26T11:00:29.195Z,26.71
2023-04-26T11:03:10.316Z,28.52
2023-04-26T11:05:38.537Z,30.40
2023-04-26T11:08:09.916Z,32.83
2023-04-26T11:10:41.061Z,33.26
2023-04-26T11:13:07.915Z,33.09
2023-04-26T11:15:36.146Z,32.34
2023-04-26T11:18:04.831Z,32.46
2023-04-26T11:20:32.957Z,32.62
2023-04-26T11:23:00.134Z,31.26
2023-04-26T11:25:28.372Z,31.19
2023-04-26T11:28:02.423Z,29.25
2023-04-26T11:30:31.597Z,28.45
2023-04-26T11:32:59.740Z,28.88
2023-04-26T11:35:29.464Z,29.77
2023-04-26T11:38:02.088Z,30.21
2023-04-26T11:40:30.895Z,29.13
2023-04-26T11:43:02.447Z,29.79
2023-04-26T11:45:29.309Z,31.14
2023-04-26T11:47:56.584Z,30.55
2023-04-26T11:50:26.727Z,28.67
2023-04-26T11:52:58.197Z,27.08
2023-04-26T11:55:28.150Z,28.54
2023-04-26T11:57:54.919Z,28.17
2023-04-26T12:00:23.033Z,27.64
2023-04-26T12:02:50.643Z,26.59
2023-04-26T12:05:28.218Z,26.31
2023-04-26T12:08:00.401Z,26.21
2023-04-26T12:10:29.169Z,25.65
2023-04-26T12:12:58.550Z,25.71
2023-04-26T12:15:34.928Z,25.57
2023-04-26T12:18:10.041Z,25.90
2023-04-26T12:20:39.073Z,26.65
2023-04-26T12:23:06.806Z,25.58
2023-04-26T12:25:35.074Z,24.61
2023-04-26T12:28:04.339Z,24.09
2023-04-26T12:30:31.365Z,23.96
2023-04-26T12:33:16.633Z,23.60
2023-04-26T12:35:44.100Z,24.14
2023-04-26T12:38:12.205Z,24.03
2023-04-26T12:40:39.475Z,23.71
2023-04-26T12:43:06.634Z,23.02
2023-04-26T12:45:33.416Z,22.86
2023-04-26T12:48:00.300Z,23.20
2023-04-26T12:50:27.588Z,23.00
2023-04-26T12:52:54.589Z,23.35
2023-04-26T12:55:21.388Z,23.65
2023-04-26T12:57:48.110Z,23.03
2023-04-26T13:00:17.568Z,23.07
2023-04-26T13:02:44.662Z,23.30
2023-04-26T13:05:11.810Z,23.41
2023-04-26T13:07:42.816Z,23.66
2023-04-26T13:10:12.946Z,23.86
2023-04-26T13:12:40.447Z,23.80
2023-04-26T13:15:08.342Z,23.87
2023-04-26T13:17:37.243Z,23.52
2023-04-26T13:20:06.361Z,23.26
2023-04-26T13:22:34.196Z,23.22
2023-04-26T13:25:00.962Z,22.84
2023-04-26T13:27:30.471Z,22.16
2023-04-26T13:29:58.414Z,22.08
2023-04-26T13:32:25.382Z,21.98
2023-04-26T13:34:52.881Z,21.83
2023-04-26T13:37:21.181Z,21.76
2023-04-26T13:39:48.384Z,21.71
2023-04-26T13:42:16.294Z,21.61
2023-04-26T13:44:43.255Z,21.78
2023-04-26T13:47:10.376Z,22.05
2023-04-26T13:49:38.185Z,22.13
2023-04-26T13:52:04.913Z,22.58
2023-04-26T13:54:31.670Z,23.16
2023-04-26T13:56:58.311Z,22.97
2023-04-26T13:59:25.000Z,23.40
2023-04-26T14:01:54.215Z,23.54
2023-04-26T14:04:22.343Z,23.40
2023-04-26T14:06:49.267Z,23.63
2023-04-26T14:09:16.272Z,23.82
2023-04-26T14:11:42.956Z,23.91
2023-04-26T14:14:09.629Z,23.84
2023-04-26T14:16:36.356Z,23.73
2023-04-26T14:19:02.993Z,23.58
2023-04-26T14:21:29.672Z,23.54
2023-04-26T14:23:56.536Z,23.30
2023-04-26T14:26:25.955Z,23.27
2023-04-26T14:28:52.756Z,23.28
2023-04-26T14:31:19.780Z,23.38
2023-04-26T14:33:49.403Z,23.06
2023-04-26T14:36:16.128Z,23.23
2023-04-26T14:38:43.737Z,23.24
2023-04-26T14:41:17.109Z,23.38
2023-04-26T14:43:45.941Z,23.60
2023-04-26T14:46:13.511Z,23.67
2023-04-26T14:48:40.477Z,23.78
2023-04-26T14:51:07.093Z,23.54
2023-04-26T14:53:33.747Z,23.40
2023-04-26T14:56:05.955Z,23.37
2023-04-26T14:58:32.702Z,23.33
2023-04-26T15:00:59.412Z,23.39
2023-04-26T15:03:26.989Z,23.32
2023-04-26T15:05:53.909Z,23.33
2023-04-26T15:08:20.623Z,23.43
2023-04-26T15:10:47.222Z,23.26
2023-04-26T15:13:13.847Z,22.79
2023-04-26T15:15:40.501Z,22.18
2023-04-26T15:18:07.234Z,22.21
2023-04-26T15:20:33.914Z,21.90
2023-04-26T15:23:00.624Z,21.80
2023-04-26T15:25:27.279Z,21.52
2023-04-26T15:27:53.892Z,21.39
2023-04-26T15:30:20.753Z,21.44
2023-04-26T15:32:49.237Z,21.29
2023-04-26T15:35:16.065Z,20.95
2023-04-26T15:37:44.063Z,20.90
2023-04-26T15:40:11.993Z,20.88
2023-04-26T15:42:39.195Z,21.13
2023-04-26T15:45:06.516Z,21.48
2023-04-26T15:47:34.445Z,21.66
2023-04-26T15:50:03.662Z,22.07
2023-04-26T15:52:36.277Z,22.19
2023-04-26T15:55:07.136Z,21.76
2023-04-26T15:57:34.587Z,21.62
2023-04-26T16:00:01.805Z,21.37
2023-04-26T16:02:31.343Z,21.57
2023-04-26T16:04:58.209Z,21.61
2023-04-26T16:07:25.095Z,21.72
2023-04-26T16:09:52.493Z,21.75
2023-04-26T16:12:19.709Z,21.79
2023-04-26T16:14:46.405Z,21.88
2023-04-26T16:17:13.357Z,22.11
2023-04-26T16:19:40.157Z,22.09
2023-04-26T16:22:06.829Z,21.97
2023-04-26T16:24:33.502Z,22.01
2023-04-26T16:27:00.251Z,21.92
2023-04-26T16:29:27.126Z,21.60
2023-04-26T16:31:53.863Z,21.44
2023-04-26T16:34:20.730Z,21.48
2023-04-26T16:36:47.417Z,21.35
2023-04-26T16:39:16.177Z,21.45
2023-04-26T16:41:43.285Z,21.41
2023-04-26T16:44:10.076Z,21.44
2023-04-26T16:46:37.256Z,21.59
2023-04-26T16:49:09.439Z,21.36
2023-04-26T16:51:37.386Z,21.38
2023-04-26T16:54:04.423Z,20.96
2023-04-26T16:56:32.080Z,21.15
2023-04-26T16:58:59.181Z,20.97
2023-04-26T17:01:26.480Z,21.10
2023-04-26T17:03:53.951Z,21.17
2023-04-26T17:06:20.985Z,20.99
2023-04-26T17:08:47.836Z,20.76
2023-04-26T17:11:17.943Z,20.63
2023-04-26T17:13:45.073Z,20.56
2023-04-26T17:16:12.139Z,20.31
2023-04-26T17:18:38.898Z,20.20
2023-04-26T17:21:06.016Z,20.07
2023-04-26T17:23:33.712Z,20.18
2023-04-26T17:26:01.745Z,20.01
2023-04-26T17:28:28.718Z,20.06
2023-04-26T17:30:55.430Z,19.94
2023-04-26T17:33:22.147Z,19.80
2023-04-26T17:35:48.974Z,19.59
2023-04-26T17:38:15.853Z,19.50
2023-04-26T17:40:42.592Z,19.44
2023-04-26T17:43:09.224Z,19.37
2023-04-26T17:45:35.936Z,19.29
2023-04-26T17:48:02.946Z,19.23
2023-04-26T17:50:30.281Z,19.12
2023-04-26T17:52:56.977Z,19.09
2023-04-26T17:55:23.646Z,19.09
2023-04-26T17:57:50.557Z,19.06
2023-04-26T18:00:17.797Z,18.89
2023-04-26T18:02:44.615Z,18.88
2023-04-26T18:05:11.790Z,19.00
2023-04-26T18:07:38.642Z,18.94
2023-04-26T18:10:06.460Z,18.76
2023-04-26T18:12:33.337Z,18.81
2023-04-26T18:15:00.362Z,18.87
2023-04-26T18:17:27.234Z,18.74
2023-04-26T18:19:54.091Z,18.55
2023-04-26T18:22:20.944Z,18.60
2023-04-26T18:24:47.629Z,18.54
2023-04-26T18:27:14.362Z,18.56
2023-04-26T18:29:41.352Z,18.62
2023-04-26T18:32:08.046Z,18.59
2023-04-26T18:34:34.723Z,18.56
2023-04-26T18:37:01.394Z,18.34
2023-04-26T18:39:28.092Z,18.34
2023-04-26T18:41:54.715Z,18.12
2023-04-26T18:44:21.428Z,18.04
2023-04-26T18:46:48.225Z,17.91
2023-04-26T18:49:14.970Z,17.86
2023-04-26T18:51:41.616Z,18.01
2023-04-26T18:54:08.314Z,17.91
2023-04-26T18:56:35.043Z,18.05
2023-04-26T18:59:01.752Z,18.10
2023-04-26T19:01:28.425Z,18.13
2023-04-26T19:03:55.751Z,18.01
2023-04-26T19:06:22.565Z,18.02
2023-04-26T19:08:49.218Z,17.97
2023-04-26T19:11:15.854Z,17.79
2023-04-26T19:13:42.777Z,17.85
2023-04-26T19:16:10.410Z,17.72
2023-04-26T19:18:37.513Z,17.76
2023-04-26T19:21:05.173Z,17.84
2023-04-26T19:23:31.956Z,17.87
2023-04-26T19:26:07.656Z,17.86
2023-04-26T19:28:35.058Z,17.78
2023-04-26T19:31:01.884Z,17.80
2023-04-26T19:33:28.688Z,17.64
2023-04-26T19:35:58.945Z,17.58
2023-04-26T19:38:25.714Z,17.46
2023-04-26T19:40:52.939Z,17.28
2023-04-26T19:43:20.406Z,17.20
2023-04-26T19:45:47.613Z,17.17
2023-04-26T19:48:14.512Z,16.99
2023-04-26T19:50:45.462Z,16.88
2023-04-26T19:53:14.990Z,16.46
2023-04-26T19:55:42.341Z,16.46
2023-04-26T19:58:13.057Z,16.54
2023-04-26T20:00:40.546Z,16.53
2023-04-26T20:03:07.728Z,16.49
2023-04-26T20:05:34.850Z,16.36
2023-04-26T20:08:01.718Z,16.36
2023-04-26T20:10:33.568Z,16.30
2023-04-26T20:13:00.607Z,16.29
2023-04-26T20:15:27.784Z,16.27
2023-04-26T20:17:54.995Z,16.21
2023-04-26T20:20:22.071Z,16.22
2023-04-26T20:22:48.890Z,16.27
2023-04-26T20:25:15.811Z,16.24
2023-04-26T20:27:42.582Z,16.24
2023-04-26T20:30:10.060Z,16.19
2023-04-26T20:32:36.721Z,16.13
2023-04-26T20:35:04.608Z,16.13
2023-04-26T20:37:31.271Z,16.03
2023-04-26T20:39:57.900Z,15.92
2023-04-26T20:42:25.180Z,15.71
2023-04-26T20:44:52.181Z,15.68
2023-04-26T20:47:19.254Z,15.56
2023-04-26T20:49:45.980Z,15.57
2023-04-26T20:52:12.824Z,15.63
2023-04-26T20:54:39.523Z,15.62
2023-04-26T20:57:06.356Z,15.56
2023-04-26T20:59:33.052Z,15.52
2023-04-26T21:01:59.738Z,15.45
2023-04-26T21:04:26.903Z,15.50
2023-04-26T21:06:53.875Z,15.46
2023-04-26T21:09:21.468Z,15.31
2023-04-26T21:11:48.148Z,15.39
2023-04-26T21:14:14.781Z,15.45
2023-04-26T21:16:41.653Z,15.48
2023-04-26T21:19:08.545Z,15.38
2023-04-26T21:21:35.487Z,15.29
2023-04-26T21:24:03.261Z,15.31
2023-04-26T21:26:30.161Z,15.32
2023-04-26T21:28:56.861Z,15.33
2023-04-26T21:31:23.671Z,15.31
2023-04-26T21:33:50.818Z,15.27
2023-04-26T21:36:17.633Z,15.25
2023-04-26T21:38:44.584Z,15.30
2023-04-26T21:41:11.381Z,15.24
2023-04-26T21:43:38.100Z,15.10
2023-04-26T21:46:05.004Z,15.20
2023-04-26T21:48:31.635Z,15.07
2023-04-26T21:50:58.346Z,15.19
2023-04-26T21:53:25.064Z,15.06
2023-04-26T21:55:52.848Z,15.03
2023-04-26T21:58:20.621Z,15.07
2023-04-26T22:00:47.945Z,15.21
2023-04-26T22:03:14.886Z,15.17
2023-04-26T22:05:41.887Z,15.05
2023-04-26T22:08:08.718Z,14.97
2023-04-26T22:10:36.241Z,14.82
2023-04-26T22:13:03.016Z,14.62
2023-04-26T22:15:29.838Z,14.49
2023-04-26T22:17:56.694Z,14.43
2023-04-26T22:20:23.503Z,14.42
2023-04-26T22:22:50.318Z,14.40
2023-04-26T22:25:17.021Z,14.24
2023-04-26T22:27:43.617Z,14.21
2023-04-26T22:30:23.997Z,14.25
2023-04-26T22:32:54.510Z,14.17
2023-04-26T22:35:22.773Z,14.14
2023-04-26T22:37:49.915Z,14.12
2023-04-26T22:40:16.745Z,14.10
2023-04-26T22:42:43.831Z,14.09
2023-04-26T22:45:12.342Z,14.04
2023-04-26T22:47:40.079Z,14.00
2023-04-26T22:50:08.045Z,13.95
2023-04-26T22:52:35.699Z,13.84
2023-04-26T22:55:02.807Z,13.63
2023-04-26T22:57:30.316Z,13.53
2023-04-26T22:59:57.093Z,13.51
2023-04-26T23:02:24.196Z,13.54
2023-04-26T23:04:51.317Z,13.50
2023-04-26T23:07:18.148Z,13.58
2023-04-26T23:09:45.054Z,13.66
2023-04-26T23:12:11.773Z,13.69
2023-04-26T23:14:38.507Z,13.71
2023-04-26T23:17:05.738Z,13.71
2023-04-26T23:19:33.140Z,13.74
2023-04-26T23:22:00.028Z,13.76
2023-04-26T23:24:27.005Z,13.80
2023-04-26T23:26:53.780Z,13.79
2023-04-26T23:29:20.434Z,13.77
2023-04-26T23:31:47.166Z,13.80
2023-04-26T23:34:13.912Z,13.82
2023-04-26T23:36:41.097Z,13.79
2023-04-26T23:39:08.782Z,13.74
2023-04-26T23:41:35.757Z,13.74
2023-04-26T23:44:02.397Z,13.77
2023-04-26T23:46:29.619Z,13.76
2023-04-26T23:48:56.300Z,13.77
2023-04-26T23:51:22.989Z,13.76
2023-04-26T23:53:49.668Z,13.78
2023-04-26T23:56:16.362Z,13.78
2023-04-26T23:58:43.116Z,13.90
